Time;durP1;ratioP1;P1;durP2;ratioP2;P2;SDS_P1;SDS_P2;PMS_P1;PMS_P2;Temp;Humidity;BMP_temperature;BMP_pressure;BME280_temperature;BME280_humidity;BME280_pressure;Samples;Min_cycle;Max_cycle;Signal;HPM_P1;HPM_P2
2023/03/03 00:00:35;;;;;;;;;;;;;;;;;;6156538;23;19909;-80
2023/03/03 00:03:01;;;;;;;;;;;;;;;;;;6157421;23;20333;-80
2023/03/03 00:05:26;;;;;;;;;;;;;;;;;;6154905;23;19915;-79
2023/03/03 00:07:52;;;;;;;;;;;;;;;;;;6129649;23;19912;-80
2023/03/03 00:10:17;;;;;;;;;;;;;;;;;;6156664;23;19951;-79
2023/03/03 00:12:43;;;;;;;;;;;;;;;;;;6154949;23;20361;-80
2023/03/03 00:15:08;;;;;;;;;;;;;;;;;;6155114;23;19912;-79
2023/03/03 00:17:33;;;;;;;;;;;;;;;;;;6156268;23;19944;-81
2023/03/03 00:19:59;;;;;;;;;;;;;;;;;;6180302;23;19995;-79
2023/03/03 00:22:24;;;;;;;;;;;;;;;;;;6161883;23;19908;-80
2023/03/03 00:24:50;;;;;;;;;;;;;;;;;;6158206;23;20254;-80
2023/03/03 00:27:15;;;;;;;;;;;;;;;;;;6134569;23;19913;-80
2023/03/03 00:29:40;;;;;;;;;;;;;;;;;;6160279;23;20401;-80
2023/03/03 00:32:06;;;;;;;;;;;;;;;;;;6183934;23;19908;-80
2023/03/03 00:34:32;;;;;;;;;;;;;;;;;;6161446;23;19909;-80
2023/03/03 00:36:57;;;;;;;;;;;;;;;;;;6182687;23;19912;-79
2023/03/03 00:39:22;;;;;;;;;;;;;;;;;;6161118;23;19932;-79
2023/03/03 00:41:48;;;;;;;;;;;;;;;;;;6182728;23;19987;-81
2023/03/03 00:44:13;;;;;;;;;;;;;;;;;;6156518;23;19908;-80
2023/03/03 00:46:39;;;;;;;;;;;;;;;;;;6156917;23;20334;-80
2023/03/03 00:49:04;;;;;;;;;;;;;;;;;;6157820;23;19971;-82
2023/03/03 00:51:30;;;;;;;;;;;;;;;;;;6155118;23;19987;-79
2023/03/03 00:53:55;;;;;;;;;;;;;;;;;;6130474;23;20259;-80
2023/03/03 00:56:21;;;;;;;;;;;;;;;;;;6155677;23;19912;-80
2023/03/03 00:58:49;;;;;;;;;;;;;;;;;;6156218;23;19905;-80
2023/03/03 01:01:17;;;;;;;;;;;;;;;;;;6130812;23;19912;-81
2023/03/03 01:03:46;;;;;;;;;;;;;;;;;;6154088;23;19992;-80
2023/03/03 01:06:12;;;;;;;;;;;;;;;;;;6179154;23;19924;-80
2023/03/03 01:08:37;;;;;;;;;;;;;;;;;;6178268;23;19932;-79
2023/03/03 01:11:03;;;;;;;;;;;;;;;;;;6156360;23;20290;-80
2023/03/03 01:13:28;;;;;;;;;;;;;;;;;;6155563;23;19912;-81
2023/03/03 01:15:53;;;;;;;;;;;;;;;;;;6155708;23;19932;-81
2023/03/03 01:18:19;;;;;;;;;;;;;;;;;;6156906;23;19909;-80
2023/03/03 01:20:44;;;;;;;;;;;;;;;;;;6181802;23;20251;-80
2023/03/03 01:23:10;;;;;;;;;;;;;;;;;;6165984;23;19909;-81
2023/03/03 01:25:35;;;;;;;;;;;;;;;;;;6178587;23;19915;-81
2023/03/03 01:28:01;;;;;;;;;;;;;;;;;;6170587;23;19967;-81
2023/03/03 01:30:26;;;;;;;;;;;;;;;;;;6194964;23;19913;-80
2023/03/03 01:32:52;;;;;;;;;;;;;;;;;;6169619;23;19936;-80
2023/03/03 01:35:17;;;;;;;;;;;;;;;;;;6164448;23;19991;-80
2023/03/03 01:37:42;;;;;;;;;;;;;;;;;;6134299;23;20047;-81
2023/03/03 01:40:08;;;;;;;;;;;;;;;;;;6157256;23;19913;-81
2023/03/03 01:42:33;;;;;;;;;;;;;;;;;;6158082;23;19921;-81
2023/03/03 01:44:59;;;;;;;;;;;;;;;;;;6157102;23;19908;-81
2023/03/03 01:47:24;;;;;;;;;;;;;;;;;;6156790;23;19935;-80
2023/03/03 01:49:49;;;;;;;;;;;;;;;;;;6181550;23;19933;-80
2023/03/03 01:52:15;;;;;;;;;;;;;;;;;;6132170;23;19909;-78
2023/03/03 01:54:40;;;;;;;;;;;;;;;;;;6156490;23;20246;-81
2023/03/03 01:57:06;;;;;;;;;;;;;;;;;;6156336;23;19908;-80
2023/03/03 01:59:31;;;;;;;;;;;;;;;;;;6157992;23;19944;-81
2023/03/03 02:01:57;;;;;;;;;;;;;;;;;;6158637;23;19916;-79
2023/03/03 02:04:22;;;;;;;;;;;;;;;;;;6182497;23;20346;-81
2023/03/03 02:06:47;;;;;;;;;;;;;;;;;;6166081;23;19923;-81
2023/03/03 02:09:13;;;;;;;;;;;;;;;;;;6173717;23;19913;-79
2023/03/03 02:11:38;;;;;;;;;;;;;;;;;;6170344;23;19920;-81
2023/03/03 02:14:04;;;;;;;;;;;;;;;;;;6142414;23;19948;-80
2023/03/03 02:16:29;;;;;;;;;;;;;;;;;;6167043;23;19909;-79
2023/03/03 02:18:54;;;;;;;;;;;;;;;;;;6168342;23;19905;-79
2023/03/03 02:21:20;;;;;;;;;;;;;;;;;;6191713;23;19931;-80
2023/03/03 02:23:45;;;;;;;;;;;;;;;;;;6181491;23;19916;-80
2023/03/03 02:26:11;;;;;;;;;;;;;;;;;;6158498;23;19912;-81
2023/03/03 02:28:37;;;;;;;;;;;;;;;;;;6181843;23;19909;-80
2023/03/03 02:31:04;;;;;;;;;;;;;;;;;;6191661;23;19897;-80
2023/03/03 02:33:30;;;;;;;;;;;;;;;;;;6200222;23;19916;-80
2023/03/03 02:35:55;;;;;;;;;;;;;;;;;;6171843;23;20298;-80
2023/03/03 02:38:21;;;;;;;;;;;;;;;;;;6164412;23;19905;-80
2023/03/03 02:40:46;;;;;;;;;;;;;;;;;;6181035;23;19916;-80
2023/03/03 02:43:12;;;;;;;;;;;;;;;;;;6132254;23;19909;-79
2023/03/03 02:45:37;;;;;;;;;;;;;;;;;;6180172;23;19909;-80
2023/03/03 02:48:02;;;;;;;;;;;;;;;;;;6130601;23;19948;-80
2023/03/03 02:50:28;;;;;;;;;;;;;;;;;;6179531;23;19966;-79
2023/03/03 02:52:53;;;;;;;;;;;;;;;;;;6157265;23;19915;-81
2023/03/03 02:55:19;;;;;;;;;;;;;;;;;;6107177;23;19908;-80
2023/03/03 02:57:44;;;;;;;;;;;;;;;;;;6156580;23;19928;-80
2023/03/03 03:00:09;;;;;;;;;;;;;;;;;;6155337;23;19915;-81
2023/03/03 03:02:35;;;;;;;;;;;;;;;;;;6106528;23;19908;-80
2023/03/03 03:05:01;;;;;;;;;;;;;;;;;;6130197;23;19908;-79
2023/03/03 03:07:26;;;;;;;;;;;;;;;;;;6153843;23;19920;-80
2023/03/03 03:09:52;;;;;;;;;;;;;;;;;;6178847;23;19912;-79
2023/03/03 03:12:19;;;;;;;;;;;;;;;;;;6179231;23;19909;-79
2023/03/03 03:14:47;;;;;;;;;;;;;;;;;;6178978;23;19930;-80
2023/03/03 03:17:12;;;;;;;;;;;;;;;;;;6154218;23;19963;-78
2023/03/03 03:19:38;;;;;;;;;;;;;;;;;;6154574;23;19916;-78
2023/03/03 03:22:03;;;;;;;;;;;;;;;;;;6130054;23;20432;-79
2023/03/03 03:24:31;;;;;;;;;;;;;;;;;;6154168;23;20330;-78
2023/03/03 03:27:01;;;;;;;;;;;;;;;;;;6178740;23;20003;-79
2023/03/03 03:29:27;;;;;;;;;;;;;;;;;;6179706;23;19908;-78
2023/03/03 03:31:52;;;;;;;;;;;;;;;;;;6105673;23;19908;-80
2023/03/03 03:34:17;;;;;;;;;;;;;;;;;;6154125;23;20338;-80
2023/03/03 03:36:45;;;;;;;;;;;;;;;;;;6178889;23;19909;-79
2023/03/03 03:39:11;;;;;;;;;;;;;;;;;;6129560;23;19908;-80
2023/03/03 03:41:40;;;;;;;;;;;;;;;;;;6130125;23;19915;-79
2023/03/03 03:44:05;;;;;;;;;;;;;;;;;;6129260;23;19909;-78
2023/03/03 03:46:31;;;;;;;;;;;;;;;;;;6178391;23;20293;-79
2023/03/03 03:48:56;;;;;;;;;;;;;;;;;;6178718;23;19909;-80
2023/03/03 03:51:21;;;;;;;;;;;;;;;;;;6129156;23;19983;-78
2023/03/03 03:53:47;;;;;;;;;;;;;;;;;;6179169;23;19909;-79
2023/03/03 03:56:12;;;;;;;;;;;;;;;;;;6156159;23;19913;-79
2023/03/03 03:58:38;;;;;;;;;;;;;;;;;;6179415;23;19919;-78
2023/03/03 04:01:06;;;;;;;;;;;;;;;;;;6131353;23;20393;-79
2023/03/03 04:03:35;;;;;;;;;;;;;;;;;;6179681;23;19909;-79
2023/03/03 04:06:04;;;;;;;;;;;;;;;;;;6106604;23;20263;-79
2023/03/03 04:08:29;;;;;;;;;;;;;;;;;;6181461;23;19913;-79
2023/03/03 04:10:54;;;;;;;;;;;;;;;;;;6109913;23;20446;-81
2023/03/03 04:13:20;;;;;;;;;;;;;;;;;;6160485;23;19908;-79
2023/03/03 04:15:46;;;;;;;;;;;;;;;;;;6186553;23;19988;-80
2023/03/03 04:18:12;;;;;;;;;;;;;;;;;;6190719;23;19953;-80
2023/03/03 04:20:37;;;;;;;;;;;;;;;;;;6149223;23;19909;-79
2023/03/03 04:23:03;;;;;;;;;;;;;;;;;;6201217;23;19909;-78
2023/03/03 04:25:30;;;;;;;;;;;;;;;;;;6165230;23;19912;-78
2023/03/03 04:27:56;;;;;;;;;;;;;;;;;;6164823;23;19919;-79
2023/03/03 04:30:21;;;;;;;;;;;;;;;;;;6139110;23;19984;-79
2023/03/03 04:32:50;;;;;;;;;;;;;;;;;;6188679;23;20334;-78
2023/03/03 04:35:19;;;;;;;;;;;;;;;;;;6160734;23;19912;-79
2023/03/03 04:37:45;;;;;;;;;;;;;;;;;;6156295;23;20227;-80
2023/03/03 04:40:11;;;;;;;;;;;;;;;;;;6132070;23;19963;-78
2023/03/03 04:42:37;;;;;;;;;;;;;;;;;;6157116;23;19908;-80
2023/03/03 04:45:03;;;;;;;;;;;;;;;;;;6182765;23;19939;-77
2023/03/03 04:47:29;;;;;;;;;;;;;;;;;;6133713;23;19913;-78
2023/03/03 04:49:54;;;;;;;;;;;;;;;;;;6181491;23;19992;-80
2023/03/03 04:52:20;;;;;;;;;;;;;;;;;;6106888;23;19913;-79
2023/03/03 04:54:45;;;;;;;;;;;;;;;;;;6131507;23;19909;-79
2023/03/03 04:57:11;;;;;;;;;;;;;;;;;;6132894;23;19935;-79
2023/03/03 04:59:37;;;;;;;;;;;;;;;;;;6157602;23;20387;-79
2023/03/03 05:02:03;;;;;;;;;;;;;;;;;;6181215;23;19908;-80
2023/03/03 05:04:29;;;;;;;;;;;;;;;;;;6181159;23;19967;-80
2023/03/03 05:06:56;;;;;;;;;;;;;;;;;;6180989;23;19912;-78
2023/03/03 05:09:21;;;;;;;;;;;;;;;;;;6155597;23;19936;-80
2023/03/03 05:11:47;;;;;;;;;;;;;;;;;;6157508;23;20369;-80
2023/03/03 05:14:12;;;;;;;;;;;;;;;;;;6131736;23;19916;-80
2023/03/03 05:16:37;;;;;;;;;;;;;;;;;;6106696;23;19968;-79
2023/03/03 05:19:03;;;;;;;;;;;;;;;;;;6156151;23;19915;-81
2023/03/03 05:21:28;;;;;;;;;;;;;;;;;;6157834;23;20018;-80
2023/03/03 05:23:54;;;;;;;;;;;;;;;;;;6157750;23;19915;-80
2023/03/03 05:26:19;;;;;;;;;;;;;;;;;;6106518;23;19905;-79
2023/03/03 05:28:44;;;;;;;;;;;;;;;;;;6155951;23;20330;-79
2023/03/03 05:31:10;;;;;;;;;;;;;;;;;;6157131;23;19946;-80
2023/03/03 05:33:35;;;;;;;;;;;;;;;;;;6155231;23;19916;-81
2023/03/03 05:36:01;;;;;;;;;;;;;;;;;;6155706;23;19980;-79
2023/03/03 05:38:26;;;;;;;;;;;;;;;;;;6156220;23;19980;-79
2023/03/03 05:40:53;;;;;;;;;;;;;;;;;;6156338;23;19908;-79
2023/03/03 05:43:18;;;;;;;;;;;;;;;;;;6156449;23;19927;-80
2023/03/03 05:45:44;;;;;;;;;;;;;;;;;;6181402;23;19932;-79
2023/03/03 05:48:09;;;;;;;;;;;;;;;;;;6157078;23;19913;-78
2023/03/03 05:50:35;;;;;;;;;;;;;;;;;;6155769;23;19916;-79
2023/03/03 05:53:02;;;;;;;;;;;;;;;;;;6157418;23;20524;-78
2023/03/03 05:55:27;;;;;;;;;;;;;;;;;;6174588;23;19921;-77
2023/03/03 05:57:53;;;;;;;;;;;;;;;;;;6138230;23;19905;-78
2023/03/03 06:00:18;;;;;;;;;;;;;;;;;;6163698;23;19909;-77
2023/03/03 06:02:44;;;;;;;;;;;;;;;;;;6163038;23;20338;-80
2023/03/03 06:05:10;;;;;;;;;;;;;;;;;;6147507;23;19919;-78
2023/03/03 06:07:36;;;;;;;;;;;;;;;;;;6167478;23;19912;-77
2023/03/03 06:10:01;;;;;;;;;;;;;;;;;;6158202;23;20241;-77
2023/03/03 06:12:29;;;;;;;;;;;;;;;;;;6159430;23;19916;-78
2023/03/03 06:14:55;;;;;;;;;;;;;;;;;;6162041;23;19952;-79
2023/03/03 06:17:20;;;;;;;;;;;;;;;;;;6137153;23;19912;-81
2023/03/03 06:19:47;;;;;;;;;;;;;;;;;;6159429;23;19909;-77
2023/03/03 06:22:12;;;;;;;;;;;;;;;;;;6161228;23;19909;-77
2023/03/03 06:24:38;;;;;;;;;;;;;;;;;;6183141;23;20298;-78
2023/03/03 06:27:07;;;;;;;;;;;;;;;;;;6184725;23;19918;-76
2023/03/03 06:29:32;;;;;;;;;;;;;;;;;;6185735;23;20254;-78
2023/03/03 06:31:58;;;;;;;;;;;;;;;;;;6183337;23;20242;-80
2023/03/03 06:34:23;;;;;;;;;;;;;;;;;;6158604;23;19947;-82
2023/03/03 06:36:49;;;;;;;;;;;;;;;;;;6158898;23;19913;-80
2023/03/03 06:39:14;;;;;;;;;;;;;;;;;;6183841;23;19992;-78
2023/03/03 06:41:40;;;;;;;;;;;;;;;;;;6158943;23;19978;-81
2023/03/03 06:44:05;;;;;;;;;;;;;;;;;;6185780;23;20387;-82
2023/03/03 06:46:31;;;;;;;;;;;;;;;;;;6160287;23;20393;-80
2023/03/03 06:48:56;;;;;;;;;;;;;;;;;;6158498;23;20224;-81
2023/03/03 06:51:22;;;;;;;;;;;;;;;;;;6160712;23;19933;-79
2023/03/03 06:53:48;;;;;;;;;;;;;;;;;;6137498;23;19912;-79
2023/03/03 06:56:13;;;;;;;;;;;;;;;;;;6162830;23;19959;-81
2023/03/03 06:58:39;;;;;;;;;;;;;;;;;;6138989;23;20246;-81
2023/03/03 07:01:04;;;;;;;;;;;;;;;;;;6164989;23;19908;-77
2023/03/03 07:03:30;;;;;;;;;;;;;;;;;;6165039;23;20442;-82
2023/03/03 07:05:55;;;;;;;;;;;;;;;;;;6190685;23;19909;-84
2023/03/03 07:08:21;;;;;;;;;;;;;;;;;;6192284;23;19913;-83
2023/03/03 07:10:46;;;;;;;;;;;;;;;;;;6166568;23;19909;-85
2023/03/03 07:13:12;;;;;;;;;;;;;;;;;;6193935;23;19928;-82
2023/03/03 07:15:38;;;;;;;;;;;;;;;;;;6141131;23;20350;-83
2023/03/03 07:18:04;;;;;;;;;;;;;;;;;;6192984;23;19909;-83
2023/03/03 07:20:29;;;;;;;;;;;;;;;;;;6163819;23;19908;-81
2023/03/03 07:22:55;;;;;;;;;;;;;;;;;;6165153;23;19951;-85
2023/03/03 07:25:21;;;;;;;;;;;;;;;;;;6166376;23;20334;-83
2023/03/03 07:27:46;;;;;;;;;;;;;;;;;;6140257;23;19912;-83
2023/03/03 07:30:12;;;;;;;;;;;;;;;;;;6163950;23;19931;-83
2023/03/03 07:32:37;;;;;;;;;;;;;;;;;;6166155;23;19909;-84
2023/03/03 07:35:03;;;;;;;;;;;;;;;;;;6164047;23;19916;-83
2023/03/03 07:37:32;;;;;;;;;;;;;;;;;;6194069;23;19935;-79
2023/03/03 07:39:57;;;;;;;;;;;;;;;;;;6162766;23;19915;-82
2023/03/03 07:42:23;;;;;;;;;;;;;;;;;;6163358;23;19952;-80
2023/03/03 07:44:58;;;;;;;;;;;;;;;;;;6164707;23;19908;-90
2023/03/03 07:47:24;;;;;;;;;;;;;;;;;;6168366;23;19960;-86
2023/03/03 07:49:49;;;;;;;;;;;;;;;;;;6168055;23;19909;-87
2023/03/03 07:52:15;;;;;;;;;;;;;;;;;;6194111;23;19916;-88
2023/03/03 07:54:41;;;;;;;;;;;;;;;;;;6171295;23;20163;-88
2023/03/03 07:57:07;;;;;;;;;;;;;;;;;;6173410;23;19919;-88
2023/03/03 07:59:35;;;;;;;;;;;;;;;;;;6147164;23;19991;-88
2023/03/03 08:02:01;;;;;;;;;;;;;;;;;;6147053;23;20242;-88
2023/03/03 08:04:26;;;;;;;;;;;;;;;;;;6142482;23;19944;-89
2023/03/03 08:06:52;;;;;;;;;;;;;;;;;;6169677;23;19935;-88
2023/03/03 08:09:18;;;;;;;;;;;;;;;;;;6168606;23;19908;-87
2023/03/03 08:11:44;;;;;;;;;;;;;;;;;;6143387;23;19929;-89
2023/03/03 08:14:10;;;;;;;;;;;;;;;;;;6142999;23;19931;-78
2023/03/03 08:16:35;;;;;;;;;;;;;;;;;;6160993;23;19909;-78
2023/03/03 08:19:01;;;;;;;;;;;;;;;;;;6161555;23;19908;-86
2023/03/03 08:21:27;;;;;;;;;;;;;;;;;;6142659;23;19909;-83
2023/03/03 08:23:52;;;;;;;;;;;;;;;;;;6141706;23;19908;-86
2023/03/03 08:26:18;;;;;;;;;;;;;;;;;;6165441;23;19908;-85
2023/03/03 08:28:43;;;;;;;;;;;;;;;;;;6139911;23;20223;-84
2023/03/03 08:31:09;;;;;;;;;;;;;;;;;;6141589;23;19912;-85
2023/03/03 08:33:37;;;;;;;;;;;;;;;;;;6142604;23;19978;-85
2023/03/03 08:36:06;;;;;;;;;;;;;;;;;;6143578;23;20246;-86
2023/03/03 08:38:32;;;;;;;;;;;;;;;;;;6167919;23;19948;-85
2023/03/03 08:40:57;;;;;;;;;;;;;;;;;;6147103;23;19916;-87
2023/03/03 08:43:23;;;;;;;;;;;;;;;;;;6167704;23;19908;-84
2023/03/03 08:45:49;;;;;;;;;;;;;;;;;;6142860;23;20262;-87
2023/03/03 08:48:15;;;;;;;;;;;;;;;;;;6169924;23;19912;-88
2023/03/03 08:50:40;;;;;;;;;;;;;;;;;;6172408;23;19915;-84
2023/03/03 08:53:06;;;;;;;;;;;;;;;;;;6145550;23;20334;-87
2023/03/03 08:55:32;;;;;;;;;;;;;;;;;;6170462;23;20327;-86
2023/03/03 08:57:58;;;;;;;;;;;;;;;;;;6148542;23;19932;-87
2023/03/03 09:00:26;;;;;;;;;;;;;;;;;;6149693;23;19908;-85
2023/03/03 09:02:52;;;;;;;;;;;;;;;;;;6200062;23;19952;-78
2023/03/03 09:05:18;;;;;;;;;;;;;;;;;;6146353;23;20254;-86
2023/03/03 09:07:46;;;;;;;;;;;;;;;;;;6175126;23;19932;-83
2023/03/03 09:10:12;;;;;;;;;;;;;;;;;;6199918;23;19928;-84
2023/03/03 09:12:37;;;;;;;;;;;;;;;;;;6176271;23;19920;-86
2023/03/03 09:15:03;;;;;;;;;;;;;;;;;;6150203;23;20295;-84
2023/03/03 09:17:28;;;;;;;;;;;;;;;;;;6170436;23;19943;-86
2023/03/03 09:19:54;;;;;;;;;;;;;;;;;;6148330;23;19915;-88
2023/03/03 09:22:20;;;;;;;;;;;;;;;;;;6199171;23;19912;-86
2023/03/03 09:24:45;;;;;;;;;;;;;;;;;;6198829;23;19952;-85
2023/03/03 09:27:11;;;;;;;;;;;;;;;;;;6148551;23;19936;-85
2023/03/03 09:29:37;;;;;;;;;;;;;;;;;;6172216;23;19979;-85
2023/03/03 09:32:02;;;;;;;;;;;;;;;;;;6146986;23;19911;-83
2023/03/03 09:34:28;;;;;;;;;;;;;;;;;;6193103;23;19916;-81
2023/03/03 09:36:54;;;;;;;;;;;;;;;;;;6167689;23;20349;-84
2023/03/03 09:39:19;;;;;;;;;;;;;;;;;;6192227;23;19983;-84
2023/03/03 09:41:45;;;;;;;;;;;;;;;;;;6166671;23;19909;-82
2023/03/03 09:44:11;;;;;;;;;;;;;;;;;;6165727;23;19904;-87
2023/03/03 09:46:36;;;;;;;;;;;;;;;;;;6166465;23;19913;-84
2023/03/03 09:49:02;;;;;;;;;;;;;;;;;;6170603;23;19952;-86
2023/03/03 09:51:28;;;;;;;;;;;;;;;;;;6174419;23;20262;-86
2023/03/03 09:53:53;;;;;;;;;;;;;;;;;;6170251;23;19920;-84
2023/03/03 09:56:19;;;;;;;;;;;;;;;;;;6167585;23;20007;-85
2023/03/03 09:58:45;;;;;;;;;;;;;;;;;;6168479;23;19991;-87
2023/03/03 10:01:10;;;;;;;;;;;;;;;;;;6161688;23;20294;-84
2023/03/03 10:03:36;;;;;;;;;;;;;;;;;;6184345;23;19919;-85
2023/03/03 10:06:01;;;;;;;;;;;;;;;;;;6161539;23;19905;-83
2023/03/03 10:08:27;;;;;;;;;;;;;;;;;;6163004;23;20395;-83
2023/03/03 10:10:52;;;;;;;;;;;;;;;;;;6137863;23;20261;-85
2023/03/03 10:13:18;;;;;;;;;;;;;;;;;;6139059;23;20275;-85
2023/03/03 10:15:43;;;;;;;;;;;;;;;;;;6162851;23;19915;-83
2023/03/03 10:18:09;;;;;;;;;;;;;;;;;;6137200;23;19983;-82
2023/03/03 10:20:35;;;;;;;;;;;;;;;;;;6138693;23;19933;-86
2023/03/03 10:23:01;;;;;;;;;;;;;;;;;;6137980;23;19916;-84
2023/03/03 10:25:26;;;;;;;;;;;;;;;;;;6185722;23;20231;-86
2023/03/03 10:27:52;;;;;;;;;;;;;;;;;;6131981;23;19970;-85
2023/03/03 10:30:17;;;;;;;;;;;;;;;;;;6134325;23;19975;-85
2023/03/03 10:32:44;;;;;;;;;;;;;;;;;;6152159;23;19904;-86
2023/03/03 10:35:10;;;;;;;;;;;;;;;;;;6139990;23;19913;-84
2023/03/03 10:37:35;;;;;;;;;;;;;;;;;;6161386;23;19909;-82
2023/03/03 10:40:01;;;;;;;;;;;;;;;;;;6161580;23;19909;-82
2023/03/03 10:42:27;;;;;;;;;;;;;;;;;;6134231;23;19908;-79
2023/03/03 10:44:52;;;;;;;;;;;;;;;;;;6181310;23;19909;-82
2023/03/03 10:47:18;;;;;;;;;;;;;;;;;;6157213;23;19916;-79
2023/03/03 10:49:43;;;;;;;;;;;;;;;;;;6155046;23;19909;-79
2023/03/03 10:52:09;;;;;;;;;;;;;;;;;;6158543;23;19944;-80
2023/03/03 10:54:35;;;;;;;;;;;;;;;;;;6158823;23;19908;-80
2023/03/03 10:57:03;;;;;;;;;;;;;;;;;;6159915;23;19909;-80
2023/03/03 10:59:30;;;;;;;;;;;;;;;;;;6185615;23;19948;-81
2023/03/03 11:01:55;;;;;;;;;;;;;;;;;;6157939;23;20254;-79
2023/03/03 11:04:21;;;;;;;;;;;;;;;;;;6132456;23;19908;-80
2023/03/03 11:06:46;;;;;;;;;;;;;;;;;;6156721;23;19913;-81
2023/03/03 11:09:12;;;;;;;;;;;;;;;;;;6157517;23;19908;-80
2023/03/03 11:11:39;;;;;;;;;;;;;;;;;;6132494;23;19912;-80
2023/03/03 11:14:05;;;;;;;;;;;;;;;;;;6158099;23;19904;-81
2023/03/03 11:16:31;;;;;;;;;;;;;;;;;;6133330;23;19983;-78
2023/03/03 11:19:00;;;;;;;;;;;;;;;;;;6158243;23;19931;-80
2023/03/03 11:21:26;;;;;;;;;;;;;;;;;;6160836;23;19909;-83
2023/03/03 11:23:51;;;;;;;;;;;;;;;;;;6161241;23;19916;-79
2023/03/03 11:26:17;;;;;;;;;;;;;;;;;;6160632;23;19908;-80
2023/03/03 11:28:43;;;;;;;;;;;;;;;;;;6158222;23;19971;-82
2023/03/03 11:31:09;;;;;;;;;;;;;;;;;;6183805;23;19908;-83
2023/03/03 11:33:34;;;;;;;;;;;;;;;;;;6157377;23;19913;-83
2023/03/03 11:36:00;;;;;;;;;;;;;;;;;;6180740;23;19912;-83
2023/03/03 11:38:25;;;;;;;;;;;;;;;;;;6181946;23;19909;-81
2023/03/03 11:40:51;;;;;;;;;;;;;;;;;;6182340;23;19931;-81
2023/03/03 11:43:16;;;;;;;;;;;;;;;;;;6181523;23;19916;-82
2023/03/03 11:45:42;;;;;;;;;;;;;;;;;;6156282;23;19915;-83
2023/03/03 11:48:07;;;;;;;;;;;;;;;;;;6134042;23;20310;-80
2023/03/03 11:50:33;;;;;;;;;;;;;;;;;;6184019;23;19932;-82
2023/03/03 11:52:58;;;;;;;;;;;;;;;;;;6183872;23;20294;-82
2023/03/03 11:55:24;;;;;;;;;;;;;;;;;;6132346;23;20000;-81
2023/03/03 11:57:50;;;;;;;;;;;;;;;;;;6157504;23;19913;-81
2023/03/03 12:00:15;;;;;;;;;;;;;;;;;;6156227;23;19912;-82
2023/03/03 12:02:42;;;;;;;;;;;;;;;;;;6185662;23;19908;-82
2023/03/03 12:05:08;;;;;;;;;;;;;;;;;;6186122;23;19909;-81
2023/03/03 12:07:33;;;;;;;;;;;;;;;;;;6161867;23;19956;-81
2023/03/03 12:09:59;;;;;;;;;;;;;;;;;;6135284;23;19909;-81
2023/03/03 12:12:25;;;;;;;;;;;;;;;;;;6137664;23;20238;-84
2023/03/03 12:14:50;;;;;;;;;;;;;;;;;;6138164;23;19937;-81
2023/03/03 12:17:16;;;;;;;;;;;;;;;;;;6159993;23;19955;-85
2023/03/03 12:19:41;;;;;;;;;;;;;;;;;;6185465;23;20008;-83
2023/03/03 12:22:08;;;;;;;;;;;;;;;;;;6135944;23;19913;-81
2023/03/03 12:24:33;;;;;;;;;;;;;;;;;;6162964;23;20404;-84
2023/03/03 12:26:59;;;;;;;;;;;;;;;;;;6167633;23;19912;-83
2023/03/03 12:29:25;;;;;;;;;;;;;;;;;;6141269;23;19909;-84
2023/03/03 12:31:50;;;;;;;;;;;;;;;;;;6167601;23;19909;-85
2023/03/03 12:34:16;;;;;;;;;;;;;;;;;;6143908;23;19909;-84
2023/03/03 12:36:51;;;;;;;;;;;;;;;;;;6143524;23;19916;-85
2023/03/03 12:39:17;;;;;;;;;;;;;;;;;;6165444;23;19908;-84
2023/03/03 12:41:42;;;;;;;;;;;;;;;;;;6165267;23;19928;-84
2023/03/03 12:44:08;;;;;;;;;;;;;;;;;;6137406;23;19909;-84
2023/03/03 12:46:34;;;;;;;;;;;;;;;;;;6165463;23;20362;-86
2023/03/03 12:48:59;;;;;;;;;;;;;;;;;;6165437;23;19912;-82
2023/03/03 12:51:25;;;;;;;;;;;;;;;;;;6161636;23;20363;-80
2023/03/03 12:53:51;;;;;;;;;;;;;;;;;;6160915;23;19909;-82
2023/03/03 12:56:16;;;;;;;;;;;;;;;;;;6160159;23;19912;-81
2023/03/03 12:58:43;;;;;;;;;;;;;;;;;;6160421;23;20330;-81
2023/03/03 13:01:09;;;;;;;;;;;;;;;;;;6161421;23;20319;-82
2023/03/03 13:03:34;;;;;;;;;;;;;;;;;;6183915;23;19908;-80
2023/03/03 13:06:00;;;;;;;;;;;;;;;;;;6157353;23;19913;-79
2023/03/03 13:08:30;;;;;;;;;;;;;;;;;;6158252;23;19912;-80
2023/03/03 13:10:55;;;;;;;;;;;;;;;;;;6133159;23;20374;-81
2023/03/03 13:13:21;;;;;;;;;;;;;;;;;;6157216;23;19909;-81
2023/03/03 13:15:46;;;;;;;;;;;;;;;;;;6181615;23;20330;-84
2023/03/03 13:18:12;;;;;;;;;;;;;;;;;;6157008;23;19909;-84
2023/03/03 13:20:38;;;;;;;;;;;;;;;;;;6157019;23;19975;-80
2023/03/03 13:23:03;;;;;;;;;;;;;;;;;;6158559;23;19916;-82
2023/03/03 13:25:29;;;;;;;;;;;;;;;;;;6132015;23;19915;-79
2023/03/03 13:27:54;;;;;;;;;;;;;;;;;;6132525;23;19913;-85
2023/03/03 13:30:20;;;;;;;;;;;;;;;;;;6132916;23;19912;-81
2023/03/03 13:32:46;;;;;;;;;;;;;;;;;;6159766;23;19985;-85
2023/03/03 13:35:12;;;;;;;;;;;;;;;;;;6159926;23;20079;-80
2023/03/03 13:37:38;;;;;;;;;;;;;;;;;;6159527;23;20409;-79
2023/03/03 13:40:04;;;;;;;;;;;;;;;;;;6184818;23;19916;-80
2023/03/03 13:42:29;;;;;;;;;;;;;;;;;;6160864;23;19936;-82
2023/03/03 13:44:56;;;;;;;;;;;;;;;;;;6159677;23;19915;-80
2023/03/03 13:47:22;;;;;;;;;;;;;;;;;;6161872;23;19962;-79
2023/03/03 13:49:47;;;;;;;;;;;;;;;;;;6137270;23;20267;-86
2023/03/03 13:52:13;;;;;;;;;;;;;;;;;;6190314;23;19909;-82
2023/03/03 13:54:39;;;;;;;;;;;;;;;;;;6164640;23;19908;-83
2023/03/03 13:57:04;;;;;;;;;;;;;;;;;;6166088;23;19913;-79
2023/03/03 13:59:30;;;;;;;;;;;;;;;;;;6166068;23;19908;-81
2023/03/03 14:01:56;;;;;;;;;;;;;;;;;;6168633;23;19983;-81
2023/03/03 14:04:21;;;;;;;;;;;;;;;;;;6172657;23;19908;-80
2023/03/03 14:06:47;;;;;;;;;;;;;;;;;;6148661;23;19912;-83
2023/03/03 14:09:14;;;;;;;;;;;;;;;;;;6159245;23;19908;-82
2023/03/03 14:11:39;;;;;;;;;;;;;;;;;;6133801;23;19940;-81
2023/03/03 14:14:05;;;;;;;;;;;;;;;;;;6159425;23;19959;-80
2023/03/03 14:16:30;;;;;;;;;;;;;;;;;;6183157;23;20450;-83
2023/03/03 14:18:56;;;;;;;;;;;;;;;;;;6157296;23;19928;-83
2023/03/03 14:21:22;;;;;;;;;;;;;;;;;;6160438;23;19915;-83
2023/03/03 14:23:48;;;;;;;;;;;;;;;;;;6159320;23;19924;-84
2023/03/03 14:26:14;;;;;;;;;;;;;;;;;;6184342;23;19904;-79
2023/03/03 14:28:43;;;;;;;;;;;;;;;;;;6160876;23;19916;-84
2023/03/03 14:31:09;;;;;;;;;;;;;;;;;;6160479;23;19909;-78
2023/03/03 14:33:35;;;;;;;;;;;;;;;;;;6135190;23;19908;-86
2023/03/03 14:36:04;;;;;;;;;;;;;;;;;;6159289;23;19916;-80
2023/03/03 14:38:29;;;;;;;;;;;;;;;;;;6157904;23;19912;-84
2023/03/03 14:40:55;;;;;;;;;;;;;;;;;;6158601;23;19916;-83
2023/03/03 14:43:21;;;;;;;;;;;;;;;;;;6159196;23;19971;-87
2023/03/03 14:45:47;;;;;;;;;;;;;;;;;;6135625;23;19908;-84
2023/03/03 14:48:12;;;;;;;;;;;;;;;;;;6185995;23;19920;-80
2023/03/03 14:50:38;;;;;;;;;;;;;;;;;;6162302;23;19919;-83
2023/03/03 14:53:03;;;;;;;;;;;;;;;;;;6161902;23;19912;-82
2023/03/03 14:55:29;;;;;;;;;;;;;;;;;;6162417;23;20094;-83
2023/03/03 14:57:55;;;;;;;;;;;;;;;;;;6139149;23;19904;-83
2023/03/03 15:00:21;;;;;;;;;;;;;;;;;;6162553;23;19912;-82
2023/03/03 15:02:46;;;;;;;;;;;;;;;;;;6188421;23;19936;-81
2023/03/03 15:05:12;;;;;;;;;;;;;;;;;;6188355;23;19915;-85
2023/03/03 15:07:38;;;;;;;;;;;;;;;;;;6162486;23;19913;-80
2023/03/03 15:10:06;;;;;;;;;;;;;;;;;;6163976;23;19915;-82
2023/03/03 15:12:34;;;;;;;;;;;;;;;;;;6185879;23;19909;-82
2023/03/03 15:15:00;;;;;;;;;;;;;;;;;;6187150;23;19913;-83
2023/03/03 15:17:26;;;;;;;;;;;;;;;;;;6162202;23;19912;-82
2023/03/03 15:19:53;;;;;;;;;;;;;;;;;;6162249;23;19939;-85
2023/03/03 15:22:19;;;;;;;;;;;;;;;;;;6163046;23;19909;-80
2023/03/03 15:24:46;;;;;;;;;;;;;;;;;;6164178;23;19939;-84
2023/03/03 15:27:11;;;;;;;;;;;;;;;;;;6162366;23;20407;-85
2023/03/03 15:29:38;;;;;;;;;;;;;;;;;;6165282;23;19912;-84
2023/03/03 15:32:03;;;;;;;;;;;;;;;;;;6163978;23;19913;-81
2023/03/03 15:34:29;;;;;;;;;;;;;;;;;;6158581;23;20350;-84
2023/03/03 15:36:54;;;;;;;;;;;;;;;;;;6134060;23;19916;-83
2023/03/03 15:39:20;;;;;;;;;;;;;;;;;;6136129;23;19909;-82
2023/03/03 15:41:46;;;;;;;;;;;;;;;;;;6159658;23;19908;-79
2023/03/03 15:44:12;;;;;;;;;;;;;;;;;;6134880;23;19936;-81
2023/03/03 15:46:40;;;;;;;;;;;;;;;;;;6157070;23;19915;-84
2023/03/03 15:49:06;;;;;;;;;;;;;;;;;;6157601;23;19992;-84
2023/03/03 15:51:32;;;;;;;;;;;;;;;;;;6182867;23;19909;-81
2023/03/03 15:53:58;;;;;;;;;;;;;;;;;;6157438;23;19916;-79
2023/03/03 15:56:24;;;;;;;;;;;;;;;;;;6156298;23;19913;-83
2023/03/03 15:58:50;;;;;;;;;;;;;;;;;;6157291;23;20361;-82
2023/03/03 16:01:15;;;;;;;;;;;;;;;;;;6157803;23;19909;-82
2023/03/03 16:03:45;;;;;;;;;;;;;;;;;;6132894;23;19904;-80
2023/03/03 16:06:11;;;;;;;;;;;;;;;;;;6158620;23;19912;-83
2023/03/03 16:08:39;;;;;;;;;;;;;;;;;;6133544;23;19909;-80
2023/03/03 16:11:07;;;;;;;;;;;;;;;;;;6159438;23;19909;-80
2023/03/03 16:13:32;;;;;;;;;;;;;;;;;;6159442;23;19959;-81
2023/03/03 16:15:58;;;;;;;;;;;;;;;;;;6183141;23;20463;-81
2023/03/03 16:18:23;;;;;;;;;;;;;;;;;;6134184;23;19915;-82
2023/03/03 16:20:49;;;;;;;;;;;;;;;;;;6136405;23;19909;-84
2023/03/03 16:23:15;;;;;;;;;;;;;;;;;;6135268;23;19909;-79
2023/03/03 16:25:41;;;;;;;;;;;;;;;;;;6184262;23;19915;-79
2023/03/03 16:28:07;;;;;;;;;;;;;;;;;;6160055;23;19932;-81
2023/03/03 16:30:32;;;;;;;;;;;;;;;;;;6136660;23;20358;-82
2023/03/03 16:32:58;;;;;;;;;;;;;;;;;;6136257;23;20362;-79
2023/03/03 16:35:24;;;;;;;;;;;;;;;;;;6137174;23;20011;-83